Terminal Aerodrome Forecast
Issued by NWS Cleveland, OH

Home | Current Version | Previous Version | Graphics & Text | Print | Product List | Glossary On
Versions: 1 2 3 4 5 6 7 8 9 10 11 12 13 14 15 16 17 18 19 20 21 22 23 24 25 26
485
FTUS41 KCLE 120520
TAFCLE
TAF
KCLE 120520Z 1206/1312 21007KT P6SM SCT050 BKN120
     FM121500 23014G20KT P6SM SCT035 OVC100
     FM122000 26016G26KT 2SM -SHSN OVC012
     FM130500 32016G26KT 3SM -SHSN OVC025=

USA.gov is the U.S. government's official web portal to all federal, state and local government web resources and services.